Time;durP1;ratioP1;P1;durP2;ratioP2;P2;SDS_P1;SDS_P2;PMS_P1;PMS_P2;Temp;Humidity;BMP_temperature;BMP_pressure;BME280_temperature;BME280_humidity;BME280_pressure;Samples;Min_cycle;Max_cycle;Signal;HPM_P1;HPM_P2
2022/05/03 00:00:20;;;;;;;;;;;;;;;;;;;;;
2022/05/03 00:03:05;;;;;;;20.60;12.90;;;;;;;10.86;49.86;98925.35;108789;1281;22390;-82
2022/05/03 00:06:17;;;;;;;22.70;12.70;;;;;;;10.80;50.10;98918.83;108819;1281;22278;-82
2022/05/03 00:09:04;;;;;;;26.20;13.00;;;;;;;10.80;50.11;98921.84;108738;1281;23120;-83
2022/05/03 00:11:48;;;;;;;21.30;12.70;;;;;;;10.78;50.15;98914.73;109093;1280;22875;-82
2022/05/03 00:14:36;;;;;;;22.70;13.30;;;;;;;10.83;50.17;98912.06;108776;1281;22346;-82
2022/05/03 00:17:18;;;;;;;21.30;12.40;;;;;;;10.88;50.24;98918.27;108745;1280;22419;-83
2022/05/03 00:19:48;;;;;;;22.30;12.70;;;;;;;10.87;50.21;98917.73;108954;1281;22364;-82
2022/05/03 00:22:27;;;;;;;23.00;12.30;;;;;;;10.88;50.19;98915.05;109000;1281;22514;-84
2022/05/03 00:24:57;;;;;;;21.90;12.80;;;;;;;10.83;50.13;98912.05;109037;1281;23120;-82
2022/05/03 00:27:48;;;;;;;21.90;13.00;;;;;;;10.76;50.24;98909.34;108771;1281;22422;-82
2022/05/03 00:30:15;;;;;;;24.90;13.30;;;;;;;10.68;50.30;98907.97;108800;1281;23178;-83
2022/05/03 00:32:43;;;;;;;24.50;14.70;;;;;;;10.59;50.35;98908.48;108772;1281;22360;-82
2022/05/03 00:35:21;;;;;;;21.00;14.20;;;;;;;10.51;50.43;98913.52;108989;1281;23068;-82
2022/05/03 00:38:36;;;;;;;;;;;;;;;;;;;;;
2022/05/03 00:41:58;;;;;;;24.30;14.50;;;;;;;10.30;50.56;98910.13;108130;1287;22396;-82
2022/05/03 00:45:06;;;;;;;22.10;14.00;;;;;;;10.17;50.78;98908.89;108133;1287;22321;-83
2022/05/03 00:49:50;;;;;;;;;;;;;;;;;;;;;
2022/05/03 00:53:16;;;;;;;;;;;;;;;;;;;;;
2022/05/03 00:57:48;;;;;;;25.00;14.40;;;;;;;9.78;51.17;98920.20;108287;1287;22446;-83
2022/05/03 01:00:14;;;;;;;21.50;13.20;;;;;;;9.74;51.41;98923.69;108190;1287;22451;-82
2022/05/03 01:06:55;;;;;;;24.20;13.50;;;;;;;9.66;51.54;98923.05;107382;1293;22247;-82
2022/05/03 01:09:51;;;;;;;24.20;13.60;;;;;;;9.58;51.48;98920.22;107548;1292;22612;-82
2022/05/03 01:12:43;;;;;;;26.00;14.80;;;;;;;9.55;51.88;98927.06;107473;1293;22560;-83
2022/05/03 01:15:21;;;;;;;24.90;14.70;;;;;;;9.43;51.95;98920.94;107557;1293;22590;-81
2022/05/03 01:18:14;;;;;;;26.50;13.70;;;;;;;9.33;52.04;98918.04;107644;1287;22627;-82
2022/05/03 01:20:54;;;;;;;;;;;;;;;;;;;;;
2022/05/03 01:23:44;;;;;;;24.20;14.40;;;;;;;9.17;51.93;98919.67;108196;1287;22637;-82
2022/05/03 01:26:58;;;;;;;27.00;14.30;;;;;;;9.14;52.26;98924.65;108327;1287;22490;-82
2022/05/03 01:29:33;;;;;;;21.60;13.90;;;;;;;9.10;52.31;98924.61;107588;1292;22390;-82
2022/05/03 01:32:09;;;;;;;24.50;13.90;;;;;;;9.07;52.41;98920.89;107368;1293;22508;-82
2022/05/03 01:34:37;;;;;;;24.50;14.40;;;;;;;9.06;52.60;98923.45;107484;1293;22457;-82
2022/05/03 01:37:25;;;;;;;24.80;14.10;;;;;;;9.05;52.71;98917.36;107374;1293;23228;-82
2022/05/03 01:40:11;;;;;;;23.40;14.10;;;;;;;9.03;52.74;98919.24;107628;1293;22634;-82
2022/05/03 01:43:06;;;;;;;22.70;14.80;;;;;;;8.99;52.77;98921.31;107889;1286;22478;-82
2022/05/03 01:45:41;;;;;;;27.50;15.30;;;;;;;8.93;52.65;98921.34;108344;1287;22409;-82
2022/05/03 01:51:55;;;;;;;22.90;13.80;;;;;;;8.83;52.74;98919.86;107718;1287;22647;-82
2022/05/03 01:54:41;;;;;;;23.80;14.20;;;;;;;8.77;52.96;98925.27;108264;1287;22536;-83
2022/05/03 01:57:17;;;;;;;26.30;14.40;;;;;;;8.70;53.13;98932.98;108273;1287;22631;-82
2022/05/03 02:00:10;;;;;;;31.80;16.00;;;;;;;8.65;53.10;98929.41;108359;1287;22376;-82
2022/05/03 02:03:25;;;;;;;31.50;15.60;;;;;;;8.64;53.37;98929.11;108345;1287;23110;-82
2022/05/03 02:06:00;;;;;;;24.10;13.50;;;;;;;8.62;53.79;98925.54;108967;1281;22595;-82
2022/05/03 02:08:59;;;;;;;24.60;13.80;;;;;;;8.58;53.71;98930.07;108747;1280;22620;-82
2022/05/03 02:11:46;;;;;;;26.80;16.10;;;;;;;8.55;53.73;98927.97;109262;1281;22564;-82
2022/05/03 02:14:48;;;;;;;28.40;15.40;;;;;;;8.53;53.64;98928.82;109244;1280;22226;-82
2022/05/03 02:17:36;;;;;;;27.70;15.80;;;;;;;8.51;53.82;98930.32;108413;1286;22398;-82
2022/05/03 02:20:45;;;;;;;29.50;14.30;;;;;;;8.47;54.00;98932.05;108431;1287;22527;-82
2022/05/03 02:23:44;;;;;;;26.60;16.20;;;;;;;8.43;53.75;98931.79;107731;1290;23209;-82
2022/05/03 02:26:47;;;;;;;32.20;15.90;;;;;;;8.34;54.11;98929.11;107684;1292;22510;-82
2022/05/03 02:29:19;;;;;;;25.10;14.00;;;;;;;8.28;54.15;98928.77;107562;1293;22669;-82
2022/05/03 02:32:16;;;;;;;26.00;13.20;;;;;;;8.25;54.16;98927.41;107467;1293;22440;-82
2022/05/03 02:35:02;;;;;;;25.50;14.00;;;;;;;8.24;54.35;98925.00;107686;1292;22382;-81
2022/05/03 02:38:27;;;;;;;26.10;14.20;;;;;;;8.24;54.33;98924.42;107580;1291;22734;-82
2022/05/03 02:40:58;;;;;;;24.60;13.50;;;;;;;8.29;54.71;98926.22;107129;1298;22504;-82
2022/05/03 02:43:37;;;;;;;23.70;12.60;;;;;;;8.21;54.40;98927.67;107021;1299;22574;-82
2022/05/03 02:46:46;;;;;;;25.10;14.40;;;;;;;8.05;54.67;98920.86;107108;1299;22313;-82
2022/05/03 02:49:26;;;;;;;24.90;14.30;;;;;;;7.92;54.48;98918.35;107134;1298;22924;-82
2022/05/03 02:51:56;;;;;;;34.60;17.50;;;;;;;7.85;55.04;98915.38;107023;1299;22352;-81
2022/05/03 02:54:26;;;;;;;43.00;22.00;;;;;;;7.81;54.75;98915.13;107254;1295;22518;-82
2022/05/03 02:57:15;;;;;;;47.90;24.80;;;;;;;7.77;54.90;98916.61;107338;1296;22437;-82
2022/05/03 03:02:45;;;;;;;38.20;19.20;;;;;;;7.73;55.28;98917.41;108022;1290;22442;-82
2022/05/03 03:05:17;;;;;;;44.90;22.80;;;;;;;7.72;55.16;98916.96;108031;1290;22257;-81
2022/05/03 03:08:01;;;;;;;44.90;22.60;;;;;;;7.72;55.56;98918.89;108012;1290;23244;-82
2022/05/03 03:10:48;;;;;;;41.80;20.90;;;;;;;7.72;55.57;98919.77;108035;1289;22476;-82
2022/05/03 03:13:51;;;;;;;38.00;18.30;;;;;;;7.69;55.43;98921.74;108232;1287;22943;-82
2022/05/03 03:16:29;;;;;;;29.90;15.80;;;;;;;7.69;55.37;98928.69;109167;1281;22611;-82
2022/05/03 03:18:59;;;;;;;30.80;16.10;;;;;;;7.68;55.21;98930.13;108819;1281;23052;-82
2022/05/03 03:21:34;;;;;;;33.50;16.80;;;;;;;7.65;55.44;98935.66;108799;1281;22508;-82
2022/05/03 03:24:11;;;;;;;31.70;16.60;;;;;;;7.62;55.80;98936.35;108777;1281;22910;-81
2022/05/03 03:26:52;;;;;;;32.00;16.80;;;;;;;7.62;55.54;98936.90;108907;1281;22486;-82
2022/05/03 03:29:25;;;;;;;39.10;22.30;;;;;;;7.66;55.88;98934.66;108686;1281;22144;-81
2022/05/03 03:32:02;;;;;;;35.20;19.30;;;;;;;7.65;55.88;98931.36;108780;1281;22172;-81
2022/05/03 03:34:31;;;;;;;34.60;19.20;;;;;;;7.66;55.95;98934.50;109131;1281;22513;-82
2022/05/03 03:37:01;;;;;;;33.30;18.00;;;;;;;7.69;55.80;98928.32;109010;1281;22286;-83
2022/05/03 03:39:30;;;;;;;32.50;18.60;;;;;;;7.75;55.87;98936.42;108613;1281;22489;-82
2022/05/03 03:42:02;;;;;;;27.00;16.90;;;;;;;7.77;56.04;98934.89;108772;1283;22561;-82
2022/05/03 03:44:30;;;;;;;33.80;19.60;;;;;;;7.79;55.76;98936.52;108894;1280;22487;-82
2022/05/03 03:47:02;;;;;;;34.70;19.70;;;;;;;7.81;55.91;98933.02;108980;1281;22376;-81
2022/05/03 03:49:30;;;;;;;30.80;18.40;;;;;;;7.84;55.80;98934.23;109109;1280;22438;-81
2022/05/03 03:52:11;;;;;;;31.30;17.20;;;;;;;8.00;56.24;98937.86;108722;1281;22331;-81
2022/05/03 03:54:41;;;;;;;29.60;18.00;;;;;;;8.14;56.00;98930.94;109011;1280;22390;-82
2022/05/03 03:57:08;;;;;;;34.80;17.80;;;;;;;8.31;55.86;98936.92;108995;1281;22522;-82
2022/05/03 03:59:40;;;;;;;28.90;17.90;;;;;;;8.49;55.67;98934.94;108989;1281;22470;-82
2022/05/03 04:02:10;;;;;;;31.40;16.70;;;;;;;8.71;56.17;98934.29;109042;1281;22182;-82
2022/05/03 04:04:38;;;;;;;33.70;17.60;;;;;;;8.90;56.27;98932.58;108814;1281;22242;-82
2022/05/03 04:07:06;;;;;;;33.90;18.30;;;;;;;9.01;56.18;98929.84;109265;1281;22525;-82
2022/05/03 04:09:33;;;;;;;32.40;18.20;;;;;;;9.10;56.08;98931.70;109290;1281;22226;-81
2022/05/03 04:12:04;;;;;;;34.30;18.30;;;;;;;9.26;56.00;98931.34;108737;1281;22424;-81
2022/05/03 04:14:31;;;;;;;39.60;20.90;;;;;;;9.40;55.81;98932.68;108828;1280;22346;-82
2022/05/03 04:16:59;;;;;;;38.90;20.70;;;;;;;9.63;56.04;98933.41;108738;1281;22178;-82
2022/05/03 04:19:28;;;;;;;36.40;20.50;;;;;;;9.91;56.24;98931.17;108947;1280;22354;-82
2022/05/03 04:21:55;;;;;;;38.30;21.20;;;;;;;10.19;55.99;98934.37;109193;1280;23141;-82
2022/05/03 04:24:22;;;;;;;31.90;19.10;;;;;;;10.32;55.95;98936.48;108939;1281;22599;-82
2022/05/03 04:26:49;;;;;;;31.10;17.00;;;;;;;10.42;55.77;98931.65;108982;1281;23076;-82
2022/05/03 04:29:36;;;;;;;29.40;17.00;;;;;;;10.53;55.75;98936.14;108948;1281;22542;-82
2022/05/03 04:32:04;;;;;;;22.60;14.30;;;;;;;10.55;55.63;98938.67;108958;1281;22510;-82
2022/05/03 04:34:53;;;;;;;22.10;13.80;;;;;;;10.71;56.10;98941.05;108936;1279;22435;-82
2022/05/03 04:37:31;;;;;;;21.50;13.40;;;;;;;10.90;56.08;98944.46;108909;1281;22322;-82
2022/05/03 04:39:58;;;;;;;23.80;13.50;;;;;;;10.94;55.73;98939.48;108726;1281;22279;-81
2022/05/03 04:42:25;;;;;;;24.20;13.40;;;;;;;10.96;55.38;98936.30;108872;1281;23021;-82
2022/05/03 04:44:53;;;;;;;22.30;12.80;;;;;;;11.15;55.42;98936.33;108957;1281;22363;-82
2022/05/03 04:47:22;;;;;;;24.40;12.40;;;;;;;11.47;55.38;98940.98;108747;1281;22548;-82
2022/05/03 04:50:15;;;;;;;;;;;;;;;;;;;;;
2022/05/03 04:52:44;;;;;;;22.30;12.20;;;;;;;11.86;54.81;98937.77;109019;1281;22348;-82
2022/05/03 04:55:22;;;;;;;23.30;12.30;;;;;;;12.03;54.39;98936.41;108720;1281;22413;-82
2022/05/03 04:57:54;;;;;;;23.50;12.50;;;;;;;12.20;54.51;98937.50;108873;1280;22389;-82
2022/05/03 05:00:30;;;;;;;24.00;12.80;;;;;;;12.48;54.32;98943.98;108770;1281;23118;-83
2022/05/03 05:03:06;;;;;;;25.10;13.40;;;;;;;12.76;54.15;98941.17;108827;1281;22443;-82
2022/05/03 05:05:33;;;;;;;21.70;13.50;;;;;;;12.99;54.13;98940.98;108773;1281;22353;-82
2022/05/03 05:08:11;;;;;;;26.50;13.70;;;;;;;13.36;54.27;98938.82;108977;1281;22422;-83
2022/05/03 05:10:48;;;;;;;27.80;14.60;;;;;;;13.37;53.47;98938.90;108860;1281;22362;-82
2022/05/03 05:13:16;;;;;;;33.10;16.90;;;;;;;13.25;53.70;98943.28;108924;1281;23093;-82
2022/05/03 05:15:43;;;;;;;33.30;19.50;;;;;;;13.39;53.62;98946.09;108741;1281;22306;-82
2022/05/03 05:18:14;;;;;;;30.50;20.90;;;;;;;13.59;53.63;98946.81;108896;1281;22446;-82
2022/05/03 05:20:44;;;;;;;27.70;18.70;;;;;;;13.84;53.73;98943.25;108684;1281;22301;-82
2022/05/03 05:23:12;;;;;;;25.80;15.40;;;;;;;14.25;53.75;98945.31;108860;1281;22600;-83
2022/05/03 05:25:39;;;;;;;22.70;12.70;;;;;;;14.57;53.71;98938.73;108608;1282;22537;-82
2022/05/03 05:28:06;;;;;;;22.00;12.40;;;;;;;14.80;53.00;98935.55;108650;1282;23039;-82
2022/05/03 05:30:36;;;;;;;20.30;11.20;;;;;;;14.88;53.22;98930.65;108921;1281;22426;-82
2022/05/03 05:33:07;;;;;;;23.70;12.00;;;;;;;15.20;53.29;98926.83;108654;1281;22486;-82
2022/05/03 05:35:34;;;;;;;20.40;12.00;;;;;;;15.38;52.79;98932.98;108953;1281;23131;-82
2022/05/03 05:38:02;;;;;;;18.70;11.20;;;;;;;15.51;52.88;98932.94;108812;1281;22577;-83
2022/05/03 05:40:29;;;;;;;19.60;11.80;;;;;;;15.64;52.86;98937.79;108950;1281;23174;-82
2022/05/03 05:42:56;;;;;;;16.20;10.40;;;;;;;15.79;52.61;98939.62;108855;1281;22209;-82
2022/05/03 05:45:23;;;;;;;18.00;10.50;;;;;;;15.89;52.61;98934.27;108685;1282;22487;-82
2022/05/03 05:47:52;;;;;;;17.70;10.60;;;;;;;16.17;52.48;98937.69;108676;1282;22433;-82
2022/05/03 05:50:19;;;;;;;18.90;11.40;;;;;;;16.41;52.44;98938.79;108927;1281;22491;-84
2022/05/03 05:55:31;;;;;;;14.70;9.00;;;;;;;16.75;51.88;98941.92;108805;1281;23106;-83
2022/05/03 05:58:02;;;;;;;17.00;10.30;;;;;;;16.77;51.54;98944.81;108938;1280;22461;-85
2022/05/03 06:00:30;;;;;;;16.30;9.50;;;;;;;16.93;51.98;98950.89;108730;1281;22442;-84
2022/05/03 06:03:01;;;;;;;17.20;9.10;;;;;;;17.14;51.96;98946.11;108761;1280;23074;-85
2022/05/03 06:05:31;;;;;;;16.10;8.40;;;;;;;17.41;51.68;98951.30;108584;1281;23123;-84
2022/05/03 06:07:58;;;;;;;14.00;8.20;;;;;;;17.48;51.64;98943.52;108957;1281;23212;-84
2022/05/03 06:10:26;;;;;;;15.40;8.00;;;;;;;17.62;51.50;98941.77;108914;1280;22479;-85
2022/05/03 06:12:55;;;;;;;14.00;7.80;;;;;;;17.84;51.25;98945.77;108983;1280;22530;-84
2022/05/03 06:15:22;;;;;;;15.40;7.90;;;;;;;17.90;51.15;98947.44;108970;1280;22396;-84
2022/05/03 06:17:51;;;;;;;14.00;7.50;;;;;;;17.93;50.95;98948.73;108868;1281;22456;-85
2022/05/03 06:20:18;;;;;;;15.90;8.60;;;;;;;17.90;50.83;98953.61;108906;1281;22466;-85
2022/05/03 06:22:46;;;;;;;14.80;7.40;;;;;;;18.04;51.01;98955.41;108801;1281;23240;-85
2022/05/03 06:25:13;;;;;;;12.20;7.00;;;;;;;18.17;50.58;98954.44;108857;1281;22515;-84
2022/05/03 06:27:41;;;;;;;12.50;7.50;;;;;;;18.27;50.68;98958.67;109020;1280;23132;-84
2022/05/03 06:30:11;;;;;;;14.70;8.30;;;;;;;18.45;50.73;98955.38;108751;1279;22509;-84
2022/05/03 06:32:40;;;;;;;14.50;8.00;;;;;;;18.64;50.65;98957.65;108775;1281;22289;-85
2022/05/03 06:35:07;;;;;;;17.10;8.20;;;;;;;18.72;50.64;98953.56;108854;1281;22455;-84
2022/05/03 06:37:39;;;;;;;15.50;8.70;;;;;;;18.84;50.40;98957.13;108981;1279;22484;-84
2022/05/03 06:40:08;;;;;;;14.80;8.60;;;;;;;18.91;50.04;98957.30;108907;1281;22539;-84
2022/05/03 06:42:39;;;;;;;13.50;7.80;;;;;;;18.89;50.20;98954.48;108966;1281;22434;-85
2022/05/03 06:45:08;;;;;;;15.50;7.70;;;;;;;19.07;50.24;98956.05;109244;1280;22375;-84
2022/05/03 06:47:39;;;;;;;13.00;7.20;;;;;;;19.27;50.29;98955.35;108883;1281;23254;-84
2022/05/03 06:50:07;;;;;;;12.60;6.00;;;;;;;19.57;50.01;98956.70;108691;1281;22481;-84
2022/05/03 06:52:35;;;;;;;12.50;6.10;;;;;;;19.74;49.41;98955.40;108972;1281;22389;-85
2022/05/03 06:55:05;;;;;;;11.70;6.00;;;;;;;19.86;49.52;98956.80;108584;1281;22538;-84
2022/05/03 06:57:33;;;;;;;11.90;6.00;;;;;;;20.03;49.47;98955.86;108527;1281;22371;-84
2022/05/03 07:00:10;;;;;;;11.80;6.20;;;;;;;20.22;49.22;98955.30;108720;1281;22375;-84
2022/05/03 07:02:45;;;;;;;12.50;6.10;;;;;;;20.25;49.08;98951.04;108675;1281;23293;-86
2022/05/03 07:05:13;;;;;;;13.70;6.80;;;;;;;20.35;49.13;98954.40;108745;1281;22517;-86
2022/05/03 07:07:39;;;;;;;12.10;6.50;;;;;;;20.43;48.97;98957.36;108673;1281;22240;-85
2022/05/03 07:10:07;;;;;;;12.70;6.60;;;;;;;20.48;49.15;98957.13;108799;1281;22450;-85
2022/05/03 07:12:36;;;;;;;13.40;7.70;;;;;;;20.66;49.04;98963.68;108724;1281;22463;-85
2022/05/03 07:15:04;;;;;;;14.20;7.60;;;;;;;20.79;48.79;98963.48;108726;1281;22504;-85
2022/05/03 07:23:06;;;;;;;15.40;8.20;;;;;;;20.42;48.76;98963.45;108992;1280;22590;-85
2022/05/03 07:25:33;;;;;;;18.10;9.00;;;;;;;20.48;48.82;98958.04;108894;1281;22498;-85
2022/05/03 07:28:06;;;;;;;14.60;8.10;;;;;;;20.72;48.73;98963.27;108787;1281;22685;-86
2022/05/03 07:30:36;;;;;;;15.20;8.80;;;;;;;20.92;48.75;98961.68;108919;1281;22490;-85
2022/05/03 07:33:09;;;;;;;15.20;8.10;;;;;;;21.02;48.54;98961.19;108809;1282;22139;-85
2022/05/03 07:35:40;;;;;;;14.60;8.70;;;;;;;20.90;48.18;98958.23;108843;1281;22754;-85
2022/05/03 07:38:07;;;;;;;14.40;8.20;;;;;;;20.58;47.88;98951.63;108952;1281;22455;-85
2022/05/03 07:40:38;;;;;;;13.20;8.30;;;;;;;20.38;48.04;98954.05;108549;1282;22489;-84
2022/05/03 07:43:10;;;;;;;14.60;8.90;;;;;;;20.28;47.91;98953.02;108951;1280;22417;-86
2022/05/03 07:45:37;;;;;;;15.30;8.70;;;;;;;20.30;48.20;98955.77;108929;1281;22505;-84
2022/05/03 07:48:05;;;;;;;15.00;8.50;;;;;;;20.45;48.02;98957.09;108774;1281;22448;-85
2022/05/03 07:50:35;;;;;;;16.70;8.20;;;;;;;20.75;48.05;98965.54;108947;1281;22512;-85
2022/05/03 07:53:03;;;;;;;15.20;7.80;;;;;;;20.97;47.81;98965.73;108805;1281;22476;-85
2022/05/03 07:55:32;;;;;;;13.70;7.00;;;;;;;21.25;47.92;98964.95;108665;1281;23284;-85
2022/05/03 07:58:02;;;;;;;13.80;7.70;;;;;;;21.58;47.70;98973.59;108739;1281;22389;-86
2022/05/03 08:00:39;;;;;;;12.50;7.00;;;;;;;21.60;47.28;98974.39;108966;1280;22424;-85
2022/05/03 08:03:06;;;;;;;16.90;7.70;;;;;;;21.53;47.32;98973.80;109194;1279;23578;-86
2022/05/03 08:05:34;;;;;;;12.90;7.00;;;;;;;21.40;46.26;98981.48;108744;1281;23109;-85
2022/05/03 08:08:03;;;;;;;12.70;8.10;;;;;;;21.31;47.13;98978.41;108928;1281;22996;-87
2022/05/03 08:10:42;;;;;;;13.30;7.70;;;;;;;21.71;47.07;98979.83;108780;1280;22612;-86
2022/05/03 08:13:10;;;;;;;14.40;7.80;;;;;;;22.02;46.98;98975.53;108802;1281;22395;-85
2022/05/03 08:15:43;;;;;;;12.40;7.10;;;;;;;22.24;46.80;98978.07;108765;1281;22405;-85
2022/05/03 08:18:10;;;;;;;13.10;7.80;;;;;;;22.42;46.66;98969.77;108970;1280;22457;-86
2022/05/03 08:20:45;;;;;;;10.70;6.60;;;;;;;22.67;46.79;98978.36;109183;1279;22509;-85
2022/05/03 08:23:24;;;;;;;13.40;7.60;;;;;;;22.96;46.52;98975.23;108870;1280;22422;-87
2022/05/03 08:26:05;;;;;;;;;;;;;;;;;;;;;
2022/05/03 08:28:33;;;;;;;12.10;7.50;;;;;;;22.83;46.07;98982.08;108737;1281;22407;-86
2022/05/03 08:31:04;;;;;;;10.80;6.00;;;;;;;22.87;46.06;98982.67;108742;1279;22513;-85
2022/05/03 08:33:41;;;;;;;10.70;5.00;;;;;;;22.97;45.64;98982.48;108969;1281;22416;-85
2022/05/03 08:36:08;;;;;;;10.00;5.80;;;;;;;22.75;45.44;98986.16;109272;1279;22324;-86
2022/05/03 08:42:13;;;;;;;14.00;6.60;;;;;;;22.35;44.95;98985.08;108793;1280;23007;-86
2022/05/03 08:45:04;;;;;;;;;;;;;;;;;;;;;
2022/05/03 08:47:51;;;;;;;9.00;4.80;;;;;;;22.16;45.78;98989.25;108882;1279;22552;-91
2022/05/03 08:50:28;;;;;;;9.80;4.90;;;;;;;22.32;45.43;98990.70;108837;1279;23265;-86
2022/05/03 08:53:13;;;;;;;11.70;5.10;;;;;;;22.48;45.40;98992.21;108688;1281;22411;-87
2022/05/03 08:55:41;;;;;;;11.20;5.70;;;;;;;22.58;44.96;98987.33;108732;1281;22475;-85
2022/05/03 08:58:18;;;;;;;12.60;5.10;;;;;;;22.73;45.17;98988.64;108809;1281;22450;-86
2022/05/03 09:00:45;;;;;;;9.60;4.90;;;;;;;22.92;44.92;98990.59;108835;1280;23188;-85
2022/05/03 09:03:23;;;;;;;12.00;5.80;;;;;;;22.90;44.18;98986.49;108525;1281;22383;-84
2022/05/03 09:05:52;;;;;;;12.10;6.20;;;;;;;22.57;44.10;98991.12;108769;1279;22451;-87
2022/05/03 09:08:22;;;;;;;13.50;5.50;;;;;;;22.57;45.00;98985.30;108896;1279;22406;-86
2022/05/03 09:10:50;;;;;;;11.50;5.70;;;;;;;22.72;44.39;98984.23;108954;1279;22471;-85
2022/05/03 09:13:24;;;;;;;12.60;5.60;;;;;;;22.76;44.39;98982.98;108698;1281;22440;-85
2022/05/03 09:15:55;;;;;;;9.70;5.30;;;;;;;22.65;43.82;98978.80;108790;1281;22415;-84
2022/05/03 09:18:24;;;;;;;13.70;5.30;;;;;;;22.51;43.87;98983.88;109023;1281;23174;-85
2022/05/03 09:23:53;;;;;;;10.20;4.80;;;;;;;22.44;44.40;98990.94;108843;1279;22407;-85
2022/05/03 09:26:31;;;;;;;12.00;5.50;;;;;;;22.66;43.61;98983.84;108771;1281;23655;-84
2022/05/03 09:29:08;;;;;;;9.80;5.00;;;;;;;22.68;43.56;98981.39;108881;1281;22405;-86
2022/05/03 09:31:36;;;;;;;9.10;4.80;;;;;;;22.62;42.89;98979.13;108953;1281;22434;-85
2022/05/03 09:34:27;;;;;;;13.40;5.20;;;;;;;22.21;42.65;98978.98;108787;1281;22503;-86
2022/05/03 09:36:59;;;;;;;9.80;4.90;;;;;;;22.12;43.14;98973.58;109105;1280;22239;-85
2022/05/03 09:39:33;;;;;;;9.70;5.10;;;;;;;22.43;43.96;98975.44;108797;1280;22469;-85
2022/05/03 09:42:07;;;;;;;12.00;5.50;;;;;;;22.78;43.55;98967.45;109260;1281;23110;-85
2022/05/03 09:44:37;;;;;;;13.90;5.50;;;;;;;23.05;43.34;98966.31;108910;1281;22426;-84
2022/05/03 09:47:11;;;;;;;11.80;5.90;;;;;;;23.17;43.33;98967.59;109205;1280;22489;-85
2022/05/03 09:49:45;;;;;;;11.30;5.40;;;;;;;23.33;43.06;98966.73;108752;1281;22554;-85
2022/05/03 09:52:35;;;;;;;10.50;5.40;;;;;;;23.36;43.15;98964.09;109266;1281;22510;-85
2022/05/03 09:55:10;;;;;;;10.10;5.10;;;;;;;23.44;42.95;98962.15;108794;1281;22241;-83
2022/05/03 09:57:40;;;;;;;11.10;5.40;;;;;;;23.59;42.68;98962.46;109168;1280;22482;-83
2022/05/03 10:00:09;;;;;;;9.00;4.60;;;;;;;23.67;42.70;98959.83;108955;1279;22558;-82
2022/05/03 10:02:43;;;;;;;8.70;4.60;;;;;;;23.70;42.50;98961.48;108981;1281;22457;-83
2022/05/03 10:05:11;;;;;;;9.80;5.30;;;;;;;23.84;42.43;98959.64;108649;1281;22510;-85
2022/05/03 10:07:55;;;;;;;9.90;4.50;;;;;;;23.71;41.97;98960.27;108885;1281;22478;-83
2022/05/03 10:10:29;;;;;;;9.70;5.20;;;;;;;23.30;41.10;98943.70;108785;1281;22954;-84
2022/05/03 10:12:58;;;;;;;12.60;5.60;;;;;;;23.26;41.90;98952.95;108949;1279;22507;-84
2022/05/03 10:21:53;;;;;;;10.30;4.90;;;;;;;23.89;42.47;98945.79;109125;1279;22472;-83
2022/05/03 10:24:23;;;;;;;8.40;4.60;;;;;;;23.96;40.20;98942.67;108720;1280;22411;-84
2022/05/03 10:27:01;;;;;;;10.10;4.10;;;;;;;23.62;41.06;98940.48;108766;1280;22497;-84
2022/05/03 10:29:36;;;;;;;9.60;4.10;;;;;;;23.60;41.08;98939.41;108732;1281;22422;-85
2022/05/03 10:32:06;;;;;;;10.10;4.00;;;;;;;23.57;40.68;98938.92;108993;1281;22375;-82
2022/05/03 10:34:40;;;;;;;9.80;4.50;;;;;;;23.35;39.51;98938.09;108897;1280;23283;-83
2022/05/03 10:37:17;;;;;;;8.40;4.40;;;;;;;22.96;40.82;98931.32;109086;1281;22487;-84
2022/05/03 10:39:47;;;;;;;8.70;4.10;;;;;;;23.02;40.77;98937.99;108894;1279;22443;-83
2022/05/03 10:42:22;;;;;;;8.50;3.90;;;;;;;23.15;40.76;98935.80;108858;1281;22496;-84
2022/05/03 10:45:06;;;;;;;9.10;5.30;;;;;;;23.31;40.59;98930.64;108720;1281;22567;-84
2022/05/03 10:47:53;;;;;;;8.10;4.10;;;;;;;23.27;40.25;98926.27;108865;1279;22568;-84
2022/05/03 10:50:33;;;;;;;7.70;4.10;;;;;;;22.81;39.86;98933.77;108881;1281;22218;-83
2022/05/03 10:53:16;;;;;;;7.60;3.60;;;;;;;22.20;39.87;98935.77;108996;1280;22545;-84
2022/05/03 10:56:04;;;;;;;8.20;4.10;;;;;;;21.87;40.34;98931.34;108648;1281;22618;-84
2022/05/03 10:58:42;;;;;;;11.00;4.20;;;;;;;22.30;40.53;98933.53;109067;1280;23211;-83
2022/05/03 11:01:14;;;;;;;7.30;3.50;;;;;;;22.71;40.54;98931.05;108970;1281;22498;-85
2022/05/03 11:04:01;;;;;;;10.90;4.10;;;;;;;22.84;39.61;98929.80;109204;1280;22416;-84
2022/05/03 11:06:28;;;;;;;9.60;4.10;;;;;;;23.10;39.46;98930.20;109145;1279;22471;-83
2022/05/03 11:11:47;;;;;;;8.20;3.60;;;;;;;23.07;38.64;98926.15;108728;1281;23177;-84
2022/05/03 11:14:20;;;;;;;9.30;3.90;;;;;;;23.20;39.77;98922.27;109196;1280;22343;-83
2022/05/03 11:17:08;;;;;;;10.70;3.50;;;;;;;23.61;40.09;98917.02;109163;1280;22453;-84
2022/05/03 11:19:49;;;;;;;9.40;3.80;;;;;;;24.10;39.73;98919.56;108850;1280;22495;-85
2022/05/03 11:22:35;;;;;;;7.60;3.80;;;;;;;23.90;39.19;98917.84;109131;1280;22526;-86
2022/05/03 11:25:07;;;;;;;8.50;3.90;;;;;;;23.92;39.48;98913.54;109024;1281;22458;-84
2022/05/03 11:27:39;;;;;;;7.40;3.90;;;;;;;23.87;39.82;98915.09;108767;1280;22382;-85
2022/05/03 11:30:15;;;;;;;8.30;3.80;;;;;;;24.07;39.68;98904.77;108729;1281;23250;-84
2022/05/03 11:32:46;;;;;;;8.50;3.40;;;;;;;23.89;39.19;98909.33;108916;1280;22909;-84
2022/05/03 11:35:21;;;;;;;9.80;4.20;;;;;;;23.89;39.07;98917.14;108669;1281;22452;-85
2022/05/03 11:37:55;;;;;;;9.40;4.10;;;;;;;23.69;39.48;98912.11;108506;1281;22421;-84
2022/05/03 11:40:26;;;;;;;8.70;3.90;;;;;;;23.39;39.05;98915.98;108534;1280;298618;-88
2022/05/03 11:43:16;;;;;;;9.60;4.20;;;;;;;23.21;39.31;98912.84;108754;1281;22431;-86
2022/05/03 11:45:47;;;;;;;10.60;4.10;;;;;;;23.10;39.60;98909.31;108801;1281;23120;-84
2022/05/03 11:48:23;;;;;;;11.30;3.70;;;;;;;22.88;39.08;98905.25;109175;1279;22518;-84
2022/05/03 11:56:54;;;;;;;10.10;5.10;;;;;;;22.46;38.37;98906.11;108975;1281;22827;-84
2022/05/03 11:59:33;;;;;;;8.70;4.00;;;;;;;22.56;38.77;98905.44;108920;1281;22484;-84
2022/05/03 12:02:29;;;;;;;7.70;3.70;;;;;;;22.96;38.78;98899.13;109135;1279;22551;-80
2022/05/03 12:05:30;;;;;;;8.20;3.10;;;;;;;23.12;37.38;98901.27;109192;1279;22471;-84
2022/05/03 12:08:23;;;;;;;7.00;3.20;;;;;;;23.14;37.99;98906.53;108832;1279;22243;-84
2022/05/03 12:11:03;;;;;;;7.90;4.00;;;;;;;23.07;38.03;98902.66;109058;1280;22598;-83
2022/05/03 12:13:31;;;;;;;8.70;3.80;;;;;;;22.75;37.23;98903.91;109024;1281;23082;-84
2022/05/03 12:15:58;;;;;;;8.60;3.80;;;;;;;22.35;37.51;98900.45;108777;1281;23142;-84
2022/05/03 12:18:31;;;;;;;6.60;3.70;;;;;;;22.19;38.13;98899.66;109201;1278;23266;-84
2022/05/03 12:21:18;;;;;;;6.60;3.20;;;;;;;22.28;38.25;98897.94;109013;1281;22368;-84
2022/05/03 12:23:51;;;;;;;7.50;3.50;;;;;;;22.26;37.57;98895.48;108972;1281;22426;-84
2022/05/03 12:26:32;;;;;;;9.40;4.60;;;;;;;22.09;38.16;98896.16;108681;1281;22499;-84
2022/05/03 12:29:00;;;;;;;8.50;4.50;;;;;;;22.18;38.07;98894.33;108990;1281;22408;-84
2022/05/03 12:32:23;;;;;;;12.10;5.20;;;;;;;22.27;38.21;98888.13;108765;1281;22603;-83
2022/05/03 12:35:18;;;;;;;;;;;;;;;;;;;;;
2022/05/03 12:37:53;;;;;;;9.70;3.80;;;;;;;22.28;37.99;98881.36;108820;1281;22357;-83
2022/05/03 12:40:51;;;;;;;8.90;3.80;;;;;;;22.24;37.94;98882.39;108752;1279;22483;-84
2022/05/03 12:43:21;;;;;;;8.60;3.90;;;;;;;22.35;37.51;98875.00;109200;1281;23059;-85
2022/05/03 12:46:08;;;;;;;7.60;3.80;;;;;;;22.52;37.73;98875.76;108822;1281;22463;-84
2022/05/03 12:48:38;;;;;;;7.50;3.30;;;;;;;22.71;37.78;98867.25;109007;1281;22612;-83
2022/05/03 12:51:09;;;;;;;7.10;3.50;;;;;;;22.79;37.83;98863.83;108855;1281;23396;-84
2022/05/03 12:53:36;;;;;;;6.50;3.30;;;;;;;22.94;37.98;98861.80;108796;1280;22444;-84
2022/05/03 12:59:25;;;;;;;8.20;3.30;;;;;;;22.92;37.34;98860.84;108834;1281;22677;-84